sensor_id;sensor_type;location;lat;lon;timestamp;P1;durP1;ratioP1;P2;durP2;ratioP2
14294;SDS011;7231;59.370;18.016;2023-03-25T00:02:25;0.10;;;0.10;;
14294;SDS011;7231;59.370;18.016;2023-03-25T00:04:55;0.10;;;0.10;;
14294;SDS011;7231;59.370;18.016;2023-03-25T00:07:26;1.23;;;0.10;;
14294;SDS011;7231;59.370;18.016;2023-03-25T00:09:54;0.93;;;0.10;;
14294;SDS011;7231;59.370;18.016;2023-03-25T00:12:23;0.00;;;0.00;;
14294;SDS011;7231;59.370;18.016;2023-03-25T00:14:51;0.10;;;0.10;;
14294;SDS011;7231;59.370;18.016;2023-03-25T00:17:20;0.10;;;0.10;;
14294;SDS011;7231;59.370;18.016;2023-03-25T00:19:49;0.10;;;0.10;;
14294;SDS011;7231;59.370;18.016;2023-03-25T00:22:17;0.00;;;0.00;;
14294;SDS011;7231;59.370;18.016;2023-03-25T00:24:46;0.00;;;0.00;;
14294;SDS011;7231;59.370;18.016;2023-03-25T00:27:14;0.07;;;0.07;;
14294;SDS011;7231;59.370;18.016;2023-03-25T00:29:44;0.33;;;0.10;;
14294;SDS011;7231;59.370;18.016;2023-03-25T00:32:13;0.10;;;0.10;;
14294;SDS011;7231;59.370;18.016;2023-03-25T00:34:44;0.00;;;0.00;;
14294;SDS011;7231;59.370;18.016;2023-03-25T00:37:13;0.10;;;0.10;;
14294;SDS011;7231;59.370;18.016;2023-03-25T00:39:43;0.10;;;0.10;;
14294;SDS011;7231;59.370;18.016;2023-03-25T00:42:14;0.10;;;0.10;;
14294;SDS011;7231;59.370;18.016;2023-03-25T00:44:44;0.00;;;0.00;;
14294;SDS011;7231;59.370;18.016;2023-03-25T00:47:11;0.00;;;0.00;;
14294;SDS011;7231;59.370;18.016;2023-03-25T00:49:44;0.10;;;0.10;;
14294;SDS011;7231;59.370;18.016;2023-03-25T00:52:12;0.00;;;0.00;;
14294;SDS011;7231;59.370;18.016;2023-03-25T00:54:41;0.23;;;0.20;;
14294;SDS011;7231;59.370;18.016;2023-03-25T00:57:11;0.00;;;0.00;;
14294;SDS011;7231;59.370;18.016;2023-03-25T00:59:39;0.10;;;0.10;;
14294;SDS011;7231;59.370;18.016;2023-03-25T01:02:08;0.10;;;0.10;;
14294;SDS011;7231;59.370;18.016;2023-03-25T01:04:37;0.27;;;0.10;;
14294;SDS011;7231;59.370;18.016;2023-03-25T01:07:08;0.03;;;0.03;;
14294;SDS011;7231;59.370;18.016;2023-03-25T01:09:37;0.10;;;0.10;;
14294;SDS011;7231;59.370;18.016;2023-03-25T01:12:07;0.17;;;0.13;;
14294;SDS011;7231;59.370;18.016;2023-03-25T01:14:35;0.10;;;0.10;;
14294;SDS011;7231;59.370;18.016;2023-03-25T01:17:03;0.23;;;0.20;;
14294;SDS011;7231;59.370;18.016;2023-03-25T01:19:33;0.10;;;0.10;;
14294;SDS011;7231;59.370;18.016;2023-03-25T01:22:01;0.20;;;0.20;;
14294;SDS011;7231;59.370;18.016;2023-03-25T01:24:29;0.10;;;0.10;;
14294;SDS011;7231;59.370;18.016;2023-03-25T01:26:58;0.13;;;0.13;;
14294;SDS011;7231;59.370;18.016;2023-03-25T01:29:26;0.30;;;0.30;;
14294;SDS011;7231;59.370;18.016;2023-03-25T01:31:54;0.33;;;0.30;;
14294;SDS011;7231;59.370;18.016;2023-03-25T01:34:23;0.30;;;0.30;;
14294;SDS011;7231;59.370;18.016;2023-03-25T01:36:52;0.40;;;0.30;;
14294;SDS011;7231;59.370;18.016;2023-03-25T01:39:21;0.50;;;0.40;;
14294;SDS011;7231;59.370;18.016;2023-03-25T01:41:49;0.40;;;0.40;;
14294;SDS011;7231;59.370;18.016;2023-03-25T01:47:26;0.47;;;0.40;;
14294;SDS011;7231;59.370;18.016;2023-03-25T01:49:54;1.20;;;0.60;;
14294;SDS011;7231;59.370;18.016;2023-03-25T01:52:24;0.77;;;0.60;;
14294;SDS011;7231;59.370;18.016;2023-03-25T01:54:55;0.67;;;0.53;;
14294;SDS011;7231;59.370;18.016;2023-03-25T01:57:25;0.67;;;0.67;;
14294;SDS011;7231;59.370;18.016;2023-03-25T01:59:56;0.80;;;0.67;;
14294;SDS011;7231;59.370;18.016;2023-03-25T02:02:24;0.77;;;0.77;;
14294;SDS011;7231;59.370;18.016;2023-03-25T02:05:01;1.63;;;0.87;;
14294;SDS011;7231;59.370;18.016;2023-03-25T02:07:38;1.27;;;0.83;;
14294;SDS011;7231;59.370;18.016;2023-03-25T02:10:12;0.87;;;0.83;;
14294;SDS011;7231;59.370;18.016;2023-03-25T02:12:40;2.23;;;0.90;;
14294;SDS011;7231;59.370;18.016;2023-03-25T02:15:11;1.10;;;1.00;;
14294;SDS011;7231;59.370;18.016;2023-03-25T02:17:47;1.87;;;1.30;;
14294;SDS011;7231;59.370;18.016;2023-03-25T02:23:48;1.43;;;1.03;;
14294;SDS011;7231;59.370;18.016;2023-03-25T02:29:59;1.53;;;1.27;;
14294;SDS011;7231;59.370;18.016;2023-03-25T02:32:48;2.20;;;1.20;;
14294;SDS011;7231;59.370;18.016;2023-03-25T02:35:31;2.03;;;1.40;;
14294;SDS011;7231;59.370;18.016;2023-03-25T02:38:18;1.87;;;1.43;;
14294;SDS011;7231;59.370;18.016;2023-03-25T02:41:00;2.80;;;1.30;;
14294;SDS011;7231;59.370;18.016;2023-03-25T02:43:32;2.37;;;1.97;;
14294;SDS011;7231;59.370;18.016;2023-03-25T02:46:06;1.53;;;1.27;;
14294;SDS011;7231;59.370;18.016;2023-03-25T02:48:39;1.50;;;1.30;;
14294;SDS011;7231;59.370;18.016;2023-03-25T02:51:15;2.03;;;1.50;;
14294;SDS011;7231;59.370;18.016;2023-03-25T02:53:49;2.10;;;1.50;;
14294;SDS011;7231;59.370;18.016;2023-03-25T02:56:19;1.73;;;1.40;;
14294;SDS011;7231;59.370;18.016;2023-03-25T02:58:51;2.33;;;1.30;;
14294;SDS011;7231;59.370;18.016;2023-03-25T03:01:21;2.27;;;1.67;;
14294;SDS011;7231;59.370;18.016;2023-03-25T03:03:52;1.57;;;1.23;;
14294;SDS011;7231;59.370;18.016;2023-03-25T03:06:21;1.50;;;1.40;;
14294;SDS011;7231;59.370;18.016;2023-03-25T03:08:58;1.93;;;1.60;;
14294;SDS011;7231;59.370;18.016;2023-03-25T03:11:36;3.10;;;1.73;;
14294;SDS011;7231;59.370;18.016;2023-03-25T03:14:16;1.87;;;1.40;;
14294;SDS011;7231;59.370;18.016;2023-03-25T03:16:56;3.13;;;1.83;;
14294;SDS011;7231;59.370;18.016;2023-03-25T03:19:35;3.53;;;1.67;;
14294;SDS011;7231;59.370;18.016;2023-03-25T03:22:11;2.40;;;1.47;;
14294;SDS011;7231;59.370;18.016;2023-03-25T03:24:50;2.13;;;1.60;;
14294;SDS011;7231;59.370;18.016;2023-03-25T03:27:23;2.10;;;1.70;;
14294;SDS011;7231;59.370;18.016;2023-03-25T03:30:02;1.70;;;1.23;;
14294;SDS011;7231;59.370;18.016;2023-03-25T03:32:36;2.53;;;1.73;;
14294;SDS011;7231;59.370;18.016;2023-03-25T03:35:12;1.63;;;1.50;;
14294;SDS011;7231;59.370;18.016;2023-03-25T03:37:44;2.30;;;1.53;;
14294;SDS011;7231;59.370;18.016;2023-03-25T03:40:18;4.13;;;1.80;;
14294;SDS011;7231;59.370;18.016;2023-03-25T03:42:50;2.03;;;1.63;;
14294;SDS011;7231;59.370;18.016;2023-03-25T03:45:26;2.13;;;1.60;;
14294;SDS011;7231;59.370;18.016;2023-03-25T03:47:58;3.47;;;1.67;;
14294;SDS011;7231;59.370;18.016;2023-03-25T03:50:29;3.50;;;1.73;;
14294;SDS011;7231;59.370;18.016;2023-03-25T03:53:03;2.90;;;1.87;;
14294;SDS011;7231;59.370;18.016;2023-03-25T03:55:36;3.17;;;1.63;;
14294;SDS011;7231;59.370;18.016;2023-03-25T03:58:08;1.90;;;1.73;;
14294;SDS011;7231;59.370;18.016;2023-03-25T04:00:43;2.47;;;1.93;;
14294;SDS011;7231;59.370;18.016;2023-03-25T04:03:18;3.57;;;2.00;;
14294;SDS011;7231;59.370;18.016;2023-03-25T04:05:56;2.10;;;1.87;;
14294;SDS011;7231;59.370;18.016;2023-03-25T04:08:33;2.87;;;2.00;;
14294;SDS011;7231;59.370;18.016;2023-03-25T04:11:10;4.40;;;2.30;;
14294;SDS011;7231;59.370;18.016;2023-03-25T04:13:46;3.53;;;1.97;;
14294;SDS011;7231;59.370;18.016;2023-03-25T04:16:18;2.23;;;2.03;;
14294;SDS011;7231;59.370;18.016;2023-03-25T04:18:46;2.97;;;1.93;;
14294;SDS011;7231;59.370;18.016;2023-03-25T04:21:14;3.37;;;1.87;;
14294;SDS011;7231;59.370;18.016;2023-03-25T04:23:42;3.37;;;2.40;;
14294;SDS011;7231;59.370;18.016;2023-03-25T04:26:13;6.47;;;2.37;;
14294;SDS011;7231;59.370;18.016;2023-03-25T04:28:40;2.87;;;2.03;;
14294;SDS011;7231;59.370;18.016;2023-03-25T04:31:11;2.77;;;1.90;;
14294;SDS011;7231;59.370;18.016;2023-03-25T04:33:41;3.23;;;1.97;;
14294;SDS011;7231;59.370;18.016;2023-03-25T04:36:14;2.73;;;1.80;;
14294;SDS011;7231;59.370;18.016;2023-03-25T04:38:43;2.67;;;2.10;;
14294;SDS011;7231;59.370;18.016;2023-03-25T04:41:13;3.30;;;2.00;;
14294;SDS011;7231;59.370;18.016;2023-03-25T04:43:42;2.80;;;2.03;;
14294;SDS011;7231;59.370;18.016;2023-03-25T04:46:11;4.10;;;2.13;;
14294;SDS011;7231;59.370;18.016;2023-03-25T04:48:41;2.60;;;1.83;;
14294;SDS011;7231;59.370;18.016;2023-03-25T04:51:10;4.93;;;2.10;;
14294;SDS011;7231;59.370;18.016;2023-03-25T04:53:39;3.63;;;2.10;;
14294;SDS011;7231;59.370;18.016;2023-03-25T04:56:09;2.53;;;1.70;;
14294;SDS011;7231;59.370;18.016;2023-03-25T04:58:43;4.50;;;2.20;;
14294;SDS011;7231;59.370;18.016;2023-03-25T05:01:15;3.30;;;2.10;;
14294;SDS011;7231;59.370;18.016;2023-03-25T05:03:48;5.03;;;2.60;;
14294;SDS011;7231;59.370;18.016;2023-03-25T05:06:16;4.83;;;2.33;;
14294;SDS011;7231;59.370;18.016;2023-03-25T05:08:44;3.33;;;2.10;;
14294;SDS011;7231;59.370;18.016;2023-03-25T05:11:12;3.10;;;2.23;;
14294;SDS011;7231;59.370;18.016;2023-03-25T05:13:40;5.57;;;2.20;;
14294;SDS011;7231;59.370;18.016;2023-03-25T05:16:10;7.17;;;2.70;;
14294;SDS011;7231;59.370;18.016;2023-03-25T05:18:38;4.33;;;2.60;;
14294;SDS011;7231;59.370;18.016;2023-03-25T05:21:06;3.93;;;2.03;;
14294;SDS011;7231;59.370;18.016;2023-03-25T05:23:34;4.87;;;2.73;;
14294;SDS011;7231;59.370;18.016;2023-03-25T05:26:02;4.60;;;2.57;;
14294;SDS011;7231;59.370;18.016;2023-03-25T05:28:31;3.57;;;2.30;;
14294;SDS011;7231;59.370;18.016;2023-03-25T05:30:59;4.67;;;2.43;;
14294;SDS011;7231;59.370;18.016;2023-03-25T05:33:35;4.00;;;2.80;;
14294;SDS011;7231;59.370;18.016;2023-03-25T05:36:08;8.13;;;2.57;;
14294;SDS011;7231;59.370;18.016;2023-03-25T05:38:37;5.13;;;3.13;;
14294;SDS011;7231;59.370;18.016;2023-03-25T05:41:07;5.57;;;2.60;;
14294;SDS011;7231;59.370;18.016;2023-03-25T05:43:37;4.93;;;2.50;;
14294;SDS011;7231;59.370;18.016;2023-03-25T05:46:05;5.70;;;3.23;;
14294;SDS011;7231;59.370;18.016;2023-03-25T05:48:35;5.20;;;2.67;;
14294;SDS011;7231;59.370;18.016;2023-03-25T05:51:03;4.67;;;2.67;;
14294;SDS011;7231;59.370;18.016;2023-03-25T05:53:39;5.57;;;2.27;;
14294;SDS011;7231;59.370;18.016;2023-03-25T05:56:09;4.27;;;2.17;;
14294;SDS011;7231;59.370;18.016;2023-03-25T05:58:37;5.27;;;2.80;;
14294;SDS011;7231;59.370;18.016;2023-03-25T06:01:05;5.47;;;2.67;;
14294;SDS011;7231;59.370;18.016;2023-03-25T06:03:52;7.20;;;2.87;;
14294;SDS011;7231;59.370;18.016;2023-03-25T06:06:20;5.83;;;2.67;;
14294;SDS011;7231;59.370;18.016;2023-03-25T06:08:51;3.83;;;2.63;;
14294;SDS011;7231;59.370;18.016;2023-03-25T06:11:19;7.20;;;3.20;;
14294;SDS011;7231;59.370;18.016;2023-03-25T06:13:47;4.63;;;2.50;;
14294;SDS011;7231;59.370;18.016;2023-03-25T06:16:16;5.47;;;2.63;;
14294;SDS011;7231;59.370;18.016;2023-03-25T06:18:47;4.83;;;2.20;;
14294;SDS011;7231;59.370;18.016;2023-03-25T06:21:23;3.90;;;2.73;;
14294;SDS011;7231;59.370;18.016;2023-03-25T06:23:52;5.07;;;2.60;;
14294;SDS011;7231;59.370;18.016;2023-03-25T06:26:21;4.77;;;2.33;;
14294;SDS011;7231;59.370;18.016;2023-03-25T06:28:49;4.93;;;2.40;;
14294;SDS011;7231;59.370;18.016;2023-03-25T06:31:18;5.30;;;2.43;;
14294;SDS011;7231;59.370;18.016;2023-03-25T06:33:48;4.93;;;2.10;;
14294;SDS011;7231;59.370;18.016;2023-03-25T06:36:17;4.80;;;2.37;;
14294;SDS011;7231;59.370;18.016;2023-03-25T06:38:47;5.40;;;2.60;;
14294;SDS011;7231;59.370;18.016;2023-03-25T06:41:17;3.60;;;2.30;;
14294;SDS011;7231;59.370;18.016;2023-03-25T06:43:46;4.50;;;2.47;;
14294;SDS011;7231;59.370;18.016;2023-03-25T06:46:14;3.67;;;1.80;;
14294;SDS011;7231;59.370;18.016;2023-03-25T06:48:43;5.23;;;2.20;;
14294;SDS011;7231;59.370;18.016;2023-03-25T06:51:11;4.30;;;1.60;;
14294;SDS011;7231;59.370;18.016;2023-03-25T06:53:39;2.50;;;1.80;;
14294;SDS011;7231;59.370;18.016;2023-03-25T06:56:08;2.67;;;1.77;;
14294;SDS011;7231;59.370;18.016;2023-03-25T06:58:37;2.10;;;1.47;;
14294;SDS011;7231;59.370;18.016;2023-03-25T07:01:06;2.17;;;1.37;;
14294;SDS011;7231;59.370;18.016;2023-03-25T07:03:35;2.00;;;1.50;;
14294;SDS011;7231;59.370;18.016;2023-03-25T07:06:04;2.83;;;1.50;;
14294;SDS011;7231;59.370;18.016;2023-03-25T07:08:33;2.80;;;1.47;;
14294;SDS011;7231;59.370;18.016;2023-03-25T07:11:01;2.33;;;1.33;;
14294;SDS011;7231;59.370;18.016;2023-03-25T07:13:32;2.47;;;1.60;;
14294;SDS011;7231;59.370;18.016;2023-03-25T07:16:00;3.07;;;1.40;;
14294;SDS011;7231;59.370;18.016;2023-03-25T07:18:28;1.67;;;1.40;;
14294;SDS011;7231;59.370;18.016;2023-03-25T07:20:57;3.43;;;1.70;;
14294;SDS011;7231;59.370;18.016;2023-03-25T07:23:25;2.47;;;1.47;;
14294;SDS011;7231;59.370;18.016;2023-03-25T07:25:53;3.50;;;1.63;;
14294;SDS011;7231;59.370;18.016;2023-03-25T07:28:22;3.53;;;1.60;;
14294;SDS011;7231;59.370;18.016;2023-03-25T07:30:51;5.23;;;2.07;;
14294;SDS011;7231;59.370;18.016;2023-03-25T07:33:19;3.17;;;1.70;;
14294;SDS011;7231;59.370;18.016;2023-03-25T07:35:47;3.60;;;1.53;;
14294;SDS011;7231;59.370;18.016;2023-03-25T07:38:15;3.07;;;1.67;;
14294;SDS011;7231;59.370;18.016;2023-03-25T07:40:43;2.67;;;1.50;;
14294;SDS011;7231;59.370;18.016;2023-03-25T07:43:15;1.83;;;1.60;;
14294;SDS011;7231;59.370;18.016;2023-03-25T07:45:43;3.27;;;1.50;;
14294;SDS011;7231;59.370;18.016;2023-03-25T07:48:13;4.43;;;1.80;;
14294;SDS011;7231;59.370;18.016;2023-03-25T07:50:43;4.90;;;1.53;;
14294;SDS011;7231;59.370;18.016;2023-03-25T07:53:14;4.50;;;1.60;;
14294;SDS011;7231;59.370;18.016;2023-03-25T07:55:42;2.60;;;1.53;;
14294;SDS011;7231;59.370;18.016;2023-03-25T07:58:11;4.10;;;1.90;;
14294;SDS011;7231;59.370;18.016;2023-03-25T08:00:39;3.90;;;1.83;;
14294;SDS011;7231;59.370;18.016;2023-03-25T08:03:08;4.30;;;1.63;;
14294;SDS011;7231;59.370;18.016;2023-03-25T08:05:38;2.27;;;1.43;;
14294;SDS011;7231;59.370;18.016;2023-03-25T08:08:12;3.10;;;1.63;;
14294;SDS011;7231;59.370;18.016;2023-03-25T08:10:40;2.63;;;1.73;;
14294;SDS011;7231;59.370;18.016;2023-03-25T08:13:09;2.43;;;2.10;;
14294;SDS011;7231;59.370;18.016;2023-03-25T08:15:37;4.23;;;1.77;;
14294;SDS011;7231;59.370;18.016;2023-03-25T08:18:05;2.57;;;1.40;;
14294;SDS011;7231;59.370;18.016;2023-03-25T08:20:34;3.03;;;1.60;;
14294;SDS011;7231;59.370;18.016;2023-03-25T08:23:03;2.20;;;1.40;;
14294;SDS011;7231;59.370;18.016;2023-03-25T08:25:35;2.67;;;1.60;;
14294;SDS011;7231;59.370;18.016;2023-03-25T08:28:04;3.00;;;1.47;;
14294;SDS011;7231;59.370;18.016;2023-03-25T08:30:32;3.50;;;1.30;;
14294;SDS011;7231;59.370;18.016;2023-03-25T08:33:05;2.30;;;1.43;;
14294;SDS011;7231;59.370;18.016;2023-03-25T08:35:33;1.93;;;1.30;;
14294;SDS011;7231;59.370;18.016;2023-03-25T08:38:04;2.23;;;1.53;;
14294;SDS011;7231;59.370;18.016;2023-03-25T08:40:32;3.03;;;1.90;;
14294;SDS011;7231;59.370;18.016;2023-03-25T08:43:02;3.57;;;1.60;;
14294;SDS011;7231;59.370;18.016;2023-03-25T08:45:31;2.30;;;1.47;;
14294;SDS011;7231;59.370;18.016;2023-03-25T08:48:00;2.60;;;1.77;;
14294;SDS011;7231;59.370;18.016;2023-03-25T08:50:28;4.27;;;1.77;;
14294;SDS011;7231;59.370;18.016;2023-03-25T08:52:56;6.77;;;1.97;;
14294;SDS011;7231;59.370;18.016;2023-03-25T08:55:26;2.60;;;1.40;;
14294;SDS011;7231;59.370;18.016;2023-03-25T08:57:54;1.80;;;1.43;;
14294;SDS011;7231;59.370;18.016;2023-03-25T09:00:21;4.13;;;1.40;;
14294;SDS011;7231;59.370;18.016;2023-03-25T09:02:51;3.57;;;1.80;;
14294;SDS011;7231;59.370;18.016;2023-03-25T09:05:20;5.07;;;2.00;;
14294;SDS011;7231;59.370;18.016;2023-03-25T09:07:47;3.40;;;1.80;;
14294;SDS011;7231;59.370;18.016;2023-03-25T09:10:16;5.37;;;1.67;;
14294;SDS011;7231;59.370;18.016;2023-03-25T09:12:45;7.63;;;1.93;;
14294;SDS011;7231;59.370;18.016;2023-03-25T09:15:13;6.80;;;2.57;;
14294;SDS011;7231;59.370;18.016;2023-03-25T09:17:41;2.77;;;1.50;;
14294;SDS011;7231;59.370;18.016;2023-03-25T09:20:09;4.57;;;2.23;;
14294;SDS011;7231;59.370;18.016;2023-03-25T09:22:37;4.90;;;2.03;;
14294;SDS011;7231;59.370;18.016;2023-03-25T09:25:06;5.67;;;2.10;;
14294;SDS011;7231;59.370;18.016;2023-03-25T09:27:35;4.40;;;1.90;;
14294;SDS011;7231;59.370;18.016;2023-03-25T09:30:05;4.23;;;1.73;;
14294;SDS011;7231;59.370;18.016;2023-03-25T09:32:35;4.67;;;1.97;;
14294;SDS011;7231;59.370;18.016;2023-03-25T09:35:03;5.47;;;1.90;;
14294;SDS011;7231;59.370;18.016;2023-03-25T09:37:32;4.67;;;2.23;;
14294;SDS011;7231;59.370;18.016;2023-03-25T09:40:00;3.77;;;1.80;;
14294;SDS011;7231;59.370;18.016;2023-03-25T09:42:34;5.70;;;2.10;;
14294;SDS011;7231;59.370;18.016;2023-03-25T09:45:16;3.77;;;2.00;;
14294;SDS011;7231;59.370;18.016;2023-03-25T09:47:55;3.63;;;1.80;;
14294;SDS011;7231;59.370;18.016;2023-03-25T09:50:28;2.37;;;1.90;;
14294;SDS011;7231;59.370;18.016;2023-03-25T09:52:58;5.63;;;1.67;;
14294;SDS011;7231;59.370;18.016;2023-03-25T09:55:33;4.50;;;1.80;;
14294;SDS011;7231;59.370;18.016;2023-03-25T09:58:14;3.33;;;1.80;;
14294;SDS011;7231;59.370;18.016;2023-03-25T10:01:07;3.80;;;2.17;;
14294;SDS011;7231;59.370;18.016;2023-03-25T10:03:54;5.10;;;1.70;;
14294;SDS011;7231;59.370;18.016;2023-03-25T10:06:31;5.47;;;2.67;;
14294;SDS011;7231;59.370;18.016;2023-03-25T10:09:15;6.00;;;1.80;;
14294;SDS011;7231;59.370;18.016;2023-03-25T10:11:59;5.47;;;2.03;;
14294;SDS011;7231;59.370;18.016;2023-03-25T10:14:39;4.63;;;1.90;;
14294;SDS011;7231;59.370;18.016;2023-03-25T10:17:29;2.93;;;2.23;;
14294;SDS011;7231;59.370;18.016;2023-03-25T10:20:11;3.97;;;2.20;;
14294;SDS011;7231;59.370;18.016;2023-03-25T10:22:49;6.47;;;2.07;;
14294;SDS011;7231;59.370;18.016;2023-03-25T10:25:27;4.43;;;1.70;;
14294;SDS011;7231;59.370;18.016;2023-03-25T10:28:00;2.40;;;1.83;;
14294;SDS011;7231;59.370;18.016;2023-03-25T10:30:31;3.90;;;1.93;;
14294;SDS011;7231;59.370;18.016;2023-03-25T10:33:04;3.57;;;2.30;;
14294;SDS011;7231;59.370;18.016;2023-03-25T10:35:43;2.83;;;2.00;;
14294;SDS011;7231;59.370;18.016;2023-03-25T10:38:15;3.37;;;2.37;;
14294;SDS011;7231;59.370;18.016;2023-03-25T10:40:46;3.77;;;2.30;;
14294;SDS011;7231;59.370;18.016;2023-03-25T10:43:20;3.30;;;2.10;;
14294;SDS011;7231;59.370;18.016;2023-03-25T10:45:54;4.30;;;2.10;;
14294;SDS011;7231;59.370;18.016;2023-03-25T10:48:28;2.80;;;1.80;;
14294;SDS011;7231;59.370;18.016;2023-03-25T10:51:00;2.60;;;2.10;;
14294;SDS011;7231;59.370;18.016;2023-03-25T10:53:32;3.40;;;2.00;;
14294;SDS011;7231;59.370;18.016;2023-03-25T10:56:02;5.37;;;2.63;;
14294;SDS011;7231;59.370;18.016;2023-03-25T10:58:34;3.00;;;2.47;;
14294;SDS011;7231;59.370;18.016;2023-03-25T11:01:09;4.27;;;2.07;;
14294;SDS011;7231;59.370;18.016;2023-03-25T11:03:40;7.00;;;2.20;;
14294;SDS011;7231;59.370;18.016;2023-03-25T11:06:12;6.60;;;2.27;;
14294;SDS011;7231;59.370;18.016;2023-03-25T11:08:55;5.50;;;2.90;;
14294;SDS011;7231;59.370;18.016;2023-03-25T11:11:29;6.67;;;3.93;;
14294;SDS011;7231;59.370;18.016;2023-03-25T11:13:58;5.13;;;3.53;;
14294;SDS011;7231;59.370;18.016;2023-03-25T11:16:30;6.50;;;3.40;;
14294;SDS011;7231;59.370;18.016;2023-03-25T11:19:02;3.97;;;3.00;;
14294;SDS011;7231;59.370;18.016;2023-03-25T11:21:31;4.77;;;2.70;;
14294;SDS011;7231;59.370;18.016;2023-03-25T11:24:01;3.10;;;2.80;;
14294;SDS011;7231;59.370;18.016;2023-03-25T11:26:35;4.90;;;2.90;;
14294;SDS011;7231;59.370;18.016;2023-03-25T11:29:08;3.60;;;2.57;;
14294;SDS011;7231;59.370;18.016;2023-03-25T11:31:39;5.23;;;2.30;;
14294;SDS011;7231;59.370;18.016;2023-03-25T11:34:15;4.83;;;2.53;;
14294;SDS011;7231;59.370;18.016;2023-03-25T11:36:50;3.60;;;2.27;;
14294;SDS011;7231;59.370;18.016;2023-03-25T11:39:25;3.90;;;2.30;;
14294;SDS011;7231;59.370;18.016;2023-03-25T11:41:56;3.87;;;2.10;;
14294;SDS011;7231;59.370;18.016;2023-03-25T11:44:25;2.73;;;2.10;;
14294;SDS011;7231;59.370;18.016;2023-03-25T11:46:57;2.50;;;1.90;;
14294;SDS011;7231;59.370;18.016;2023-03-25T11:49:32;4.53;;;2.03;;
14294;SDS011;7231;59.370;18.016;2023-03-25T11:52:04;4.00;;;1.90;;
14294;SDS011;7231;59.370;18.016;2023-03-25T11:54:34;4.40;;;2.10;;
14294;SDS011;7231;59.370;18.016;2023-03-25T11:57:05;3.90;;;2.20;;
14294;SDS011;7231;59.370;18.016;2023-03-25T11:59:38;2.30;;;1.90;;
14294;SDS011;7231;59.370;18.016;2023-03-25T12:02:18;3.17;;;2.00;;
14294;SDS011;7231;59.370;18.016;2023-03-25T12:04:55;3.87;;;2.20;;
14294;SDS011;7231;59.370;18.016;2023-03-25T12:07:24;2.97;;;2.10;;
14294;SDS011;7231;59.370;18.016;2023-03-25T12:09:53;3.67;;;2.37;;
14294;SDS011;7231;59.370;18.016;2023-03-25T12:12:33;3.03;;;2.23;;
14294;SDS011;7231;59.370;18.016;2023-03-25T12:15:13;5.27;;;3.20;;
14294;SDS011;7231;59.370;18.016;2023-03-25T12:17:53;5.57;;;3.20;;
14294;SDS011;7231;59.370;18.016;2023-03-25T12:20:33;4.13;;;2.03;;
14294;SDS011;7231;59.370;18.016;2023-03-25T12:23:11;3.70;;;2.17;;
14294;SDS011;7231;59.370;18.016;2023-03-25T12:25:50;4.10;;;1.87;;
14294;SDS011;7231;59.370;18.016;2023-03-25T12:28:34;3.37;;;2.10;;
14294;SDS011;7231;59.370;18.016;2023-03-25T12:31:17;2.37;;;2.10;;
14294;SDS011;7231;59.370;18.016;2023-03-25T12:33:57;3.23;;;2.17;;
14294;SDS011;7231;59.370;18.016;2023-03-25T12:36:40;3.63;;;1.80;;
14294;SDS011;7231;59.370;18.016;2023-03-25T12:39:20;4.23;;;1.60;;
14294;SDS011;7231;59.370;18.016;2023-03-25T12:42:11;4.47;;;1.80;;
14294;SDS011;7231;59.370;18.016;2023-03-25T12:44:55;3.77;;;1.60;;
14294;SDS011;7231;59.370;18.016;2023-03-25T12:47:44;4.27;;;1.60;;
14294;SDS011;7231;59.370;18.016;2023-03-25T12:50:27;1.97;;;1.50;;
14294;SDS011;7231;59.370;18.016;2023-03-25T12:53:06;2.03;;;1.30;;
14294;SDS011;7231;59.370;18.016;2023-03-25T12:55:51;1.50;;;1.20;;
14294;SDS011;7231;59.370;18.016;2023-03-25T12:58:41;1.50;;;1.23;;
14294;SDS011;7231;59.370;18.016;2023-03-25T13:01:31;1.77;;;1.30;;
14294;SDS011;7231;59.370;18.016;2023-03-25T13:04:16;5.00;;;1.90;;
14294;SDS011;7231;59.370;18.016;2023-03-25T13:06:54;2.07;;;1.53;;
14294;SDS011;7231;59.370;18.016;2023-03-25T13:09:29;4.37;;;2.27;;
14294;SDS011;7231;59.370;18.016;2023-03-25T13:12:02;2.33;;;1.47;;
14294;SDS011;7231;59.370;18.016;2023-03-25T13:14:37;3.37;;;1.30;;
14294;SDS011;7231;59.370;18.016;2023-03-25T13:17:11;2.97;;;1.60;;
14294;SDS011;7231;59.370;18.016;2023-03-25T13:19:58;1.57;;;1.47;;
14294;SDS011;7231;59.370;18.016;2023-03-25T13:22:30;2.60;;;1.73;;
14294;SDS011;7231;59.370;18.016;2023-03-25T13:25:03;2.50;;;1.53;;
14294;SDS011;7231;59.370;18.016;2023-03-25T13:27:34;3.80;;;1.70;;
14294;SDS011;7231;59.370;18.016;2023-03-25T13:30:12;3.67;;;1.93;;
14294;SDS011;7231;59.370;18.016;2023-03-25T13:32:48;2.43;;;1.83;;
14294;SDS011;7231;59.370;18.016;2023-03-25T13:35:23;4.67;;;2.10;;
14294;SDS011;7231;59.370;18.016;2023-03-25T13:38:00;2.83;;;1.90;;
14294;SDS011;7231;59.370;18.016;2023-03-25T13:40:35;2.20;;;2.00;;
14294;SDS011;7231;59.370;18.016;2023-03-25T13:43:11;2.80;;;2.40;;
14294;SDS011;7231;59.370;18.016;2023-03-25T13:45:48;2.93;;;2.50;;
14294;SDS011;7231;59.370;18.016;2023-03-25T13:48:22;2.30;;;2.10;;
14294;SDS011;7231;59.370;18.016;2023-03-25T13:50:54;3.17;;;2.10;;
14294;SDS011;7231;59.370;18.016;2023-03-25T13:53:25;6.47;;;1.90;;
14294;SDS011;7231;59.370;18.016;2023-03-25T13:56:06;2.10;;;1.90;;
14294;SDS011;7231;59.370;18.016;2023-03-25T13:58:58;3.23;;;1.80;;
14294;SDS011;7231;59.370;18.016;2023-03-25T14:01:51;2.67;;;2.13;;
14294;SDS011;7231;59.370;18.016;2023-03-25T14:04:39;4.10;;;2.40;;
14294;SDS011;7231;59.370;18.016;2023-03-25T14:07:36;4.00;;;2.10;;
14294;SDS011;7231;59.370;18.016;2023-03-25T14:10:28;4.23;;;2.93;;
14294;SDS011;7231;59.370;18.016;2023-03-25T14:13:07;3.90;;;2.60;;
14294;SDS011;7231;59.370;18.016;2023-03-25T14:15:41;2.50;;;2.20;;
14294;SDS011;7231;59.370;18.016;2023-03-25T14:18:19;3.70;;;3.03;;
14294;SDS011;7231;59.370;18.016;2023-03-25T14:20:47;3.30;;;2.77;;
14294;SDS011;7231;59.370;18.016;2023-03-25T14:23:17;4.43;;;3.07;;
14294;SDS011;7231;59.370;18.016;2023-03-25T14:25:48;3.23;;;2.70;;
14294;SDS011;7231;59.370;18.016;2023-03-25T14:28:30;3.30;;;2.40;;
14294;SDS011;7231;59.370;18.016;2023-03-25T14:31:16;4.10;;;3.47;;
14294;SDS011;7231;59.370;18.016;2023-03-25T14:34:11;4.73;;;2.90;;
14294;SDS011;7231;59.370;18.016;2023-03-25T14:39:56;2.30;;;1.90;;
14294;SDS011;7231;59.370;18.016;2023-03-25T14:42:27;2.40;;;2.20;;
14294;SDS011;7231;59.370;18.016;2023-03-25T14:48:21;2.77;;;2.10;;
14294;SDS011;7231;59.370;18.016;2023-03-25T14:51:06;3.90;;;2.37;;
14294;SDS011;7231;59.370;18.016;2023-03-25T14:53:51;2.80;;;2.00;;
14294;SDS011;7231;59.370;18.016;2023-03-25T14:56:22;3.83;;;2.13;;
14294;SDS011;7231;59.370;18.016;2023-03-25T15:01:25;2.70;;;2.33;;
14294;SDS011;7231;59.370;18.016;2023-03-25T15:04:07;3.17;;;2.30;;
14294;SDS011;7231;59.370;18.016;2023-03-25T15:06:41;4.60;;;2.70;;
14294;SDS011;7231;59.370;18.016;2023-03-25T15:09:10;4.10;;;2.40;;
14294;SDS011;7231;59.370;18.016;2023-03-25T15:11:42;3.67;;;2.60;;
14294;SDS011;7231;59.370;18.016;2023-03-25T15:14:12;3.37;;;2.33;;
14294;SDS011;7231;59.370;18.016;2023-03-25T15:16:56;2.40;;;2.13;;
14294;SDS011;7231;59.370;18.016;2023-03-25T15:19:26;4.20;;;2.43;;
14294;SDS011;7231;59.370;18.016;2023-03-25T15:22:06;2.37;;;2.10;;
14294;SDS011;7231;59.370;18.016;2023-03-25T15:24:52;2.40;;;2.07;;
14294;SDS011;7231;59.370;18.016;2023-03-25T15:27:38;4.53;;;3.03;;
14294;SDS011;7231;59.370;18.016;2023-03-25T15:30:27;3.10;;;2.53;;
14294;SDS011;7231;59.370;18.016;2023-03-25T15:33:11;3.60;;;2.97;;
14294;SDS011;7231;59.370;18.016;2023-03-25T15:35:52;4.10;;;2.60;;
14294;SDS011;7231;59.370;18.016;2023-03-25T15:38:32;5.30;;;2.37;;
14294;SDS011;7231;59.370;18.016;2023-03-25T15:41:13;4.03;;;2.30;;
14294;SDS011;7231;59.370;18.016;2023-03-25T15:44:03;2.87;;;2.40;;